sensor_id;sensor_type;location;lat;lon;timestamp;P1;durP1;ratioP1;P2;durP2;ratioP2
11510;SDS011;5812;48.864;9.190;2022-11-15T00:00:52;2.83;;;2.83;;
11510;SDS011;5812;48.864;9.190;2022-11-15T00:03:19;3.13;;;3.13;;
11510;SDS011;5812;48.864;9.190;2022-11-15T00:05:46;2.93;;;2.93;;
11510;SDS011;5812;48.864;9.190;2022-11-15T00:08:12;3.03;;;3.03;;
11510;SDS011;5812;48.864;9.190;2022-11-15T00:10:38;2.70;;;2.70;;
11510;SDS011;5812;48.864;9.190;2022-11-15T00:13:07;3.20;;;3.20;;
11510;SDS011;5812;48.864;9.190;2022-11-15T00:15:37;3.17;;;3.17;;
11510;SDS011;5812;48.864;9.190;2022-11-15T00:18:04;2.70;;;2.70;;
11510;SDS011;5812;48.864;9.190;2022-11-15T00:20:31;3.10;;;3.10;;
11510;SDS011;5812;48.864;9.190;2022-11-15T00:22:58;2.90;;;2.90;;
11510;SDS011;5812;48.864;9.190;2022-11-15T00:25:24;2.80;;;2.80;;
11510;SDS011;5812;48.864;9.190;2022-11-15T00:27:50;3.10;;;3.10;;
11510;SDS011;5812;48.864;9.190;2022-11-15T00:30:16;3.10;;;3.10;;
11510;SDS011;5812;48.864;9.190;2022-11-15T00:32:42;2.47;;;2.47;;
11510;SDS011;5812;48.864;9.190;2022-11-15T00:35:08;2.80;;;2.80;;
11510;SDS011;5812;48.864;9.190;2022-11-15T00:37:33;2.90;;;2.90;;
11510;SDS011;5812;48.864;9.190;2022-11-15T00:39:59;3.07;;;3.07;;
11510;SDS011;5812;48.864;9.190;2022-11-15T00:42:24;3.27;;;3.27;;
11510;SDS011;5812;48.864;9.190;2022-11-15T00:44:50;3.10;;;3.10;;
11510;SDS011;5812;48.864;9.190;2022-11-15T00:47:15;2.53;;;2.53;;
11510;SDS011;5812;48.864;9.190;2022-11-15T00:49:41;2.60;;;2.60;;
11510;SDS011;5812;48.864;9.190;2022-11-15T00:52:07;3.10;;;3.10;;
11510;SDS011;5812;48.864;9.190;2022-11-15T00:54:32;3.60;;;3.60;;
11510;SDS011;5812;48.864;9.190;2022-11-15T00:56:58;2.73;;;2.73;;
11510;SDS011;5812;48.864;9.190;2022-11-15T00:59:23;2.97;;;2.97;;
11510;SDS011;5812;48.864;9.190;2022-11-15T01:01:49;3.13;;;3.13;;
11510;SDS011;5812;48.864;9.190;2022-11-15T01:04:14;3.07;;;3.07;;
11510;SDS011;5812;48.864;9.190;2022-11-15T01:06:40;2.87;;;2.87;;
11510;SDS011;5812;48.864;9.190;2022-11-15T01:09:05;3.90;;;3.90;;
11510;SDS011;5812;48.864;9.190;2022-11-15T01:11:31;3.50;;;3.50;;
11510;SDS011;5812;48.864;9.190;2022-11-15T01:13:57;3.77;;;3.77;;
11510;SDS011;5812;48.864;9.190;2022-11-15T01:16:22;3.50;;;3.50;;
11510;SDS011;5812;48.864;9.190;2022-11-15T01:18:48;3.43;;;3.43;;
11510;SDS011;5812;48.864;9.190;2022-11-15T01:21:14;3.60;;;3.60;;
11510;SDS011;5812;48.864;9.190;2022-11-15T01:23:42;3.47;;;3.47;;
11510;SDS011;5812;48.864;9.190;2022-11-15T01:26:09;3.23;;;3.23;;
11510;SDS011;5812;48.864;9.190;2022-11-15T01:28:38;3.33;;;3.33;;
11510;SDS011;5812;48.864;9.190;2022-11-15T01:31:09;2.90;;;2.90;;
11510;SDS011;5812;48.864;9.190;2022-11-15T01:33:37;3.13;;;3.13;;
11510;SDS011;5812;48.864;9.190;2022-11-15T01:36:07;3.20;;;3.20;;
11510;SDS011;5812;48.864;9.190;2022-11-15T01:38:35;3.30;;;3.30;;
11510;SDS011;5812;48.864;9.190;2022-11-15T01:41:01;2.73;;;2.73;;
11510;SDS011;5812;48.864;9.190;2022-11-15T01:43:28;2.77;;;2.77;;
11510;SDS011;5812;48.864;9.190;2022-11-15T01:45:56;2.43;;;2.43;;
11510;SDS011;5812;48.864;9.190;2022-11-15T01:48:33;2.80;;;2.80;;
11510;SDS011;5812;48.864;9.190;2022-11-15T01:51:00;2.63;;;2.63;;
11510;SDS011;5812;48.864;9.190;2022-11-15T01:53:28;2.77;;;2.77;;
11510;SDS011;5812;48.864;9.190;2022-11-15T01:55:56;2.73;;;2.73;;
11510;SDS011;5812;48.864;9.190;2022-11-15T01:58:23;2.97;;;2.97;;
11510;SDS011;5812;48.864;9.190;2022-11-15T02:00:49;3.60;;;3.60;;
11510;SDS011;5812;48.864;9.190;2022-11-15T02:03:15;2.40;;;2.40;;
11510;SDS011;5812;48.864;9.190;2022-11-15T02:05:41;3.03;;;3.03;;
11510;SDS011;5812;48.864;9.190;2022-11-15T02:08:08;2.43;;;2.43;;
11510;SDS011;5812;48.864;9.190;2022-11-15T02:10:44;2.50;;;2.50;;
11510;SDS011;5812;48.864;9.190;2022-11-15T02:13:10;2.60;;;2.60;;
11510;SDS011;5812;48.864;9.190;2022-11-15T02:15:38;2.67;;;2.67;;
11510;SDS011;5812;48.864;9.190;2022-11-15T02:18:12;3.00;;;3.00;;
11510;SDS011;5812;48.864;9.190;2022-11-15T02:20:51;3.23;;;3.23;;
11510;SDS011;5812;48.864;9.190;2022-11-15T02:23:38;2.43;;;2.43;;
11510;SDS011;5812;48.864;9.190;2022-11-15T02:32:24;2.57;;;2.57;;
11510;SDS011;5812;48.864;9.190;2022-11-15T02:34:43;3.40;;;3.40;;
11510;SDS011;5812;48.864;9.190;2022-11-15T02:37:37;3.20;;;3.20;;
11510;SDS011;5812;48.864;9.190;2022-11-15T02:42:54;3.73;;;3.73;;
11510;SDS011;5812;48.864;9.190;2022-11-15T02:45:48;3.23;;;3.23;;
11510;SDS011;5812;48.864;9.190;2022-11-15T02:48:21;3.23;;;3.23;;
11510;SDS011;5812;48.864;9.190;2022-11-15T02:50:49;2.87;;;2.87;;
11510;SDS011;5812;48.864;9.190;2022-11-15T02:53:15;2.20;;;2.20;;
11510;SDS011;5812;48.864;9.190;2022-11-15T02:55:44;3.40;;;3.40;;
11510;SDS011;5812;48.864;9.190;2022-11-15T03:01:13;2.73;;;2.73;;
11510;SDS011;5812;48.864;9.190;2022-11-15T03:03:51;2.53;;;2.53;;
11510;SDS011;5812;48.864;9.190;2022-11-15T03:06:42;2.70;;;2.70;;
11510;SDS011;5812;48.864;9.190;2022-11-15T03:11:45;2.97;;;2.97;;
11510;SDS011;5812;48.864;9.190;2022-11-15T03:16:41;3.43;;;3.43;;
11510;SDS011;5812;48.864;9.190;2022-11-15T03:19:20;3.93;;;3.93;;
11510;SDS011;5812;48.864;9.190;2022-11-15T03:22:02;4.00;;;4.00;;
11510;SDS011;5812;48.864;9.190;2022-11-15T03:24:30;4.33;;;4.33;;
11510;SDS011;5812;48.864;9.190;2022-11-15T03:27:01;4.80;;;4.80;;
11510;SDS011;5812;48.864;9.190;2022-11-15T03:29:32;4.30;;;4.30;;
11510;SDS011;5812;48.864;9.190;2022-11-15T03:32:03;4.43;;;4.43;;
11510;SDS011;5812;48.864;9.190;2022-11-15T03:37:24;5.07;;;5.07;;
11510;SDS011;5812;48.864;9.190;2022-11-15T03:40:05;4.37;;;4.37;;
11510;SDS011;5812;48.864;9.190;2022-11-15T03:42:43;4.83;;;4.83;;
11510;SDS011;5812;48.864;9.190;2022-11-15T03:45:15;4.03;;;4.03;;
11510;SDS011;5812;48.864;9.190;2022-11-15T03:50:10;4.57;;;4.57;;
11510;SDS011;5812;48.864;9.190;2022-11-15T03:52:39;4.43;;;4.43;;
11510;SDS011;5812;48.864;9.190;2022-11-15T03:55:08;5.13;;;5.13;;
11510;SDS011;5812;48.864;9.190;2022-11-15T03:57:35;4.53;;;4.53;;
11510;SDS011;5812;48.864;9.190;2022-11-15T04:00:02;5.23;;;5.23;;
11510;SDS011;5812;48.864;9.190;2022-11-15T04:02:28;4.53;;;4.53;;
11510;SDS011;5812;48.864;9.190;2022-11-15T04:04:54;4.83;;;4.83;;
11510;SDS011;5812;48.864;9.190;2022-11-15T04:07:20;4.77;;;4.77;;
11510;SDS011;5812;48.864;9.190;2022-11-15T04:09:45;5.20;;;5.20;;
11510;SDS011;5812;48.864;9.190;2022-11-15T04:12:34;5.10;;;5.10;;
11510;SDS011;5812;48.864;9.190;2022-11-15T04:15:12;4.97;;;4.97;;
11510;SDS011;5812;48.864;9.190;2022-11-15T04:17:46;4.37;;;4.37;;
11510;SDS011;5812;48.864;9.190;2022-11-15T04:20:18;4.53;;;4.53;;
11510;SDS011;5812;48.864;9.190;2022-11-15T04:23:06;4.10;;;4.10;;
11510;SDS011;5812;48.864;9.190;2022-11-15T04:25:54;4.40;;;4.40;;
11510;SDS011;5812;48.864;9.190;2022-11-15T04:28:21;4.33;;;4.33;;
11510;SDS011;5812;48.864;9.190;2022-11-15T04:30:47;4.43;;;4.43;;
11510;SDS011;5812;48.864;9.190;2022-11-15T04:33:12;4.57;;;4.57;;
11510;SDS011;5812;48.864;9.190;2022-11-15T04:35:38;4.67;;;4.67;;
11510;SDS011;5812;48.864;9.190;2022-11-15T04:38:05;5.10;;;5.10;;
11510;SDS011;5812;48.864;9.190;2022-11-15T04:40:32;4.00;;;4.00;;
11510;SDS011;5812;48.864;9.190;2022-11-15T04:42:58;4.20;;;4.20;;
11510;SDS011;5812;48.864;9.190;2022-11-15T04:45:24;4.27;;;4.27;;
11510;SDS011;5812;48.864;9.190;2022-11-15T04:47:50;4.57;;;4.57;;
11510;SDS011;5812;48.864;9.190;2022-11-15T04:50:16;4.30;;;4.30;;
11510;SDS011;5812;48.864;9.190;2022-11-15T04:52:42;3.23;;;3.23;;
11510;SDS011;5812;48.864;9.190;2022-11-15T04:55:14;4.57;;;4.57;;
11510;SDS011;5812;48.864;9.190;2022-11-15T04:57:40;3.57;;;3.57;;
11510;SDS011;5812;48.864;9.190;2022-11-15T05:00:07;4.03;;;4.03;;
11510;SDS011;5812;48.864;9.190;2022-11-15T05:02:34;4.40;;;4.40;;
11510;SDS011;5812;48.864;9.190;2022-11-15T05:05:18;4.00;;;4.00;;
11510;SDS011;5812;48.864;9.190;2022-11-15T05:07:44;4.07;;;4.07;;
11510;SDS011;5812;48.864;9.190;2022-11-15T05:10:09;3.83;;;3.83;;
11510;SDS011;5812;48.864;9.190;2022-11-15T05:12:35;3.87;;;3.87;;
11510;SDS011;5812;48.864;9.190;2022-11-15T05:15:02;4.67;;;4.67;;
11510;SDS011;5812;48.864;9.190;2022-11-15T05:17:27;4.20;;;4.20;;
11510;SDS011;5812;48.864;9.190;2022-11-15T05:19:53;3.53;;;3.53;;
11510;SDS011;5812;48.864;9.190;2022-11-15T05:22:19;4.10;;;4.10;;
11510;SDS011;5812;48.864;9.190;2022-11-15T05:24:44;3.53;;;3.53;;
11510;SDS011;5812;48.864;9.190;2022-11-15T05:27:10;3.53;;;3.53;;
11510;SDS011;5812;48.864;9.190;2022-11-15T05:29:36;4.17;;;4.17;;
11510;SDS011;5812;48.864;9.190;2022-11-15T05:32:03;3.40;;;3.40;;
11510;SDS011;5812;48.864;9.190;2022-11-15T05:34:30;3.90;;;3.90;;
11510;SDS011;5812;48.864;9.190;2022-11-15T05:36:55;3.27;;;3.27;;
11510;SDS011;5812;48.864;9.190;2022-11-15T05:39:21;3.10;;;3.10;;
11510;SDS011;5812;48.864;9.190;2022-11-15T05:41:48;4.13;;;4.13;;
11510;SDS011;5812;48.864;9.190;2022-11-15T05:44:20;4.20;;;4.20;;
11510;SDS011;5812;48.864;9.190;2022-11-15T05:46:49;3.80;;;3.80;;
11510;SDS011;5812;48.864;9.190;2022-11-15T05:49:18;3.87;;;3.87;;
11510;SDS011;5812;48.864;9.190;2022-11-15T05:51:46;4.33;;;4.33;;
11510;SDS011;5812;48.864;9.190;2022-11-15T05:54:14;4.20;;;4.20;;
11510;SDS011;5812;48.864;9.190;2022-11-15T05:56:42;4.00;;;4.00;;
11510;SDS011;5812;48.864;9.190;2022-11-15T05:59:08;4.37;;;4.37;;
11510;SDS011;5812;48.864;9.190;2022-11-15T06:01:35;4.80;;;4.80;;
11510;SDS011;5812;48.864;9.190;2022-11-15T06:04:01;4.53;;;4.53;;
11510;SDS011;5812;48.864;9.190;2022-11-15T06:06:29;5.33;;;5.33;;
11510;SDS011;5812;48.864;9.190;2022-11-15T06:08:55;4.20;;;4.20;;
11510;SDS011;5812;48.864;9.190;2022-11-15T06:11:21;4.93;;;4.93;;
11510;SDS011;5812;48.864;9.190;2022-11-15T06:13:46;5.00;;;5.00;;
11510;SDS011;5812;48.864;9.190;2022-11-15T06:16:12;4.73;;;4.73;;
11510;SDS011;5812;48.864;9.190;2022-11-15T06:18:37;5.53;;;5.53;;
11510;SDS011;5812;48.864;9.190;2022-11-15T06:21:03;5.33;;;5.33;;
11510;SDS011;5812;48.864;9.190;2022-11-15T06:23:31;4.60;;;4.60;;
11510;SDS011;5812;48.864;9.190;2022-11-15T06:25:58;5.00;;;5.00;;
11510;SDS011;5812;48.864;9.190;2022-11-15T06:28:24;5.03;;;5.03;;
11510;SDS011;5812;48.864;9.190;2022-11-15T06:30:52;4.20;;;4.20;;
11510;SDS011;5812;48.864;9.190;2022-11-15T06:33:18;4.83;;;4.83;;
11510;SDS011;5812;48.864;9.190;2022-11-15T06:35:43;5.37;;;5.37;;
11510;SDS011;5812;48.864;9.190;2022-11-15T06:38:09;4.50;;;4.50;;
11510;SDS011;5812;48.864;9.190;2022-11-15T06:40:36;4.37;;;4.37;;
11510;SDS011;5812;48.864;9.190;2022-11-15T06:43:03;4.50;;;4.50;;
11510;SDS011;5812;48.864;9.190;2022-11-15T06:45:29;5.40;;;5.40;;
11510;SDS011;5812;48.864;9.190;2022-11-15T06:47:56;4.20;;;4.20;;
11510;SDS011;5812;48.864;9.190;2022-11-15T06:50:22;4.33;;;4.33;;
11510;SDS011;5812;48.864;9.190;2022-11-15T06:52:48;4.30;;;4.30;;
11510;SDS011;5812;48.864;9.190;2022-11-15T06:55:13;4.67;;;4.67;;
11510;SDS011;5812;48.864;9.190;2022-11-15T06:57:51;4.80;;;4.80;;
11510;SDS011;5812;48.864;9.190;2022-11-15T07:00:18;4.53;;;4.53;;
11510;SDS011;5812;48.864;9.190;2022-11-15T07:02:45;4.47;;;4.47;;
11510;SDS011;5812;48.864;9.190;2022-11-15T07:05:12;4.07;;;4.07;;
11510;SDS011;5812;48.864;9.190;2022-11-15T07:07:38;4.57;;;4.57;;
11510;SDS011;5812;48.864;9.190;2022-11-15T07:10:04;4.30;;;4.30;;
11510;SDS011;5812;48.864;9.190;2022-11-15T07:12:30;4.30;;;4.30;;
11510;SDS011;5812;48.864;9.190;2022-11-15T07:14:56;5.17;;;5.17;;
11510;SDS011;5812;48.864;9.190;2022-11-15T07:17:21;4.70;;;4.70;;
11510;SDS011;5812;48.864;9.190;2022-11-15T07:19:47;4.20;;;4.20;;
11510;SDS011;5812;48.864;9.190;2022-11-15T07:22:12;5.10;;;5.10;;
11510;SDS011;5812;48.864;9.190;2022-11-15T07:24:38;4.40;;;4.40;;
11510;SDS011;5812;48.864;9.190;2022-11-15T07:27:04;4.83;;;4.83;;
11510;SDS011;5812;48.864;9.190;2022-11-15T07:29:29;4.67;;;4.67;;
11510;SDS011;5812;48.864;9.190;2022-11-15T07:31:55;4.53;;;4.53;;
11510;SDS011;5812;48.864;9.190;2022-11-15T07:34:20;4.97;;;4.97;;
11510;SDS011;5812;48.864;9.190;2022-11-15T07:36:46;4.20;;;4.20;;
11510;SDS011;5812;48.864;9.190;2022-11-15T07:39:11;4.00;;;4.00;;
11510;SDS011;5812;48.864;9.190;2022-11-15T07:41:38;4.27;;;4.27;;
11510;SDS011;5812;48.864;9.190;2022-11-15T07:44:04;3.50;;;3.50;;
11510;SDS011;5812;48.864;9.190;2022-11-15T07:46:30;4.13;;;4.13;;
11510;SDS011;5812;48.864;9.190;2022-11-15T07:48:56;4.13;;;4.13;;
11510;SDS011;5812;48.864;9.190;2022-11-15T07:51:22;4.80;;;4.80;;
11510;SDS011;5812;48.864;9.190;2022-11-15T07:53:48;4.27;;;4.27;;
11510;SDS011;5812;48.864;9.190;2022-11-15T07:56:13;3.63;;;3.63;;
11510;SDS011;5812;48.864;9.190;2022-11-15T07:58:39;4.00;;;4.00;;
11510;SDS011;5812;48.864;9.190;2022-11-15T08:01:05;3.60;;;3.60;;
11510;SDS011;5812;48.864;9.190;2022-11-15T08:03:32;3.70;;;3.70;;
11510;SDS011;5812;48.864;9.190;2022-11-15T08:05:58;3.87;;;3.87;;
11510;SDS011;5812;48.864;9.190;2022-11-15T08:08:23;3.53;;;3.53;;
11510;SDS011;5812;48.864;9.190;2022-11-15T08:10:49;3.70;;;3.70;;
11510;SDS011;5812;48.864;9.190;2022-11-15T08:13:14;4.27;;;4.27;;
11510;SDS011;5812;48.864;9.190;2022-11-15T08:15:40;4.20;;;4.20;;
11510;SDS011;5812;48.864;9.190;2022-11-15T08:18:09;3.97;;;3.97;;
11510;SDS011;5812;48.864;9.190;2022-11-15T08:20:37;3.17;;;3.17;;
11510;SDS011;5812;48.864;9.190;2022-11-15T08:23:03;3.57;;;3.57;;
11510;SDS011;5812;48.864;9.190;2022-11-15T08:25:30;3.13;;;3.13;;
11510;SDS011;5812;48.864;9.190;2022-11-15T08:27:58;3.73;;;3.73;;
11510;SDS011;5812;48.864;9.190;2022-11-15T08:30:25;3.33;;;3.33;;
11510;SDS011;5812;48.864;9.190;2022-11-15T08:32:51;3.50;;;3.50;;
11510;SDS011;5812;48.864;9.190;2022-11-15T08:35:18;3.63;;;3.63;;
11510;SDS011;5812;48.864;9.190;2022-11-15T08:37:45;3.30;;;3.30;;
11510;SDS011;5812;48.864;9.190;2022-11-15T08:40:11;3.63;;;3.63;;
11510;SDS011;5812;48.864;9.190;2022-11-15T08:42:38;3.63;;;3.63;;
11510;SDS011;5812;48.864;9.190;2022-11-15T08:45:03;3.90;;;3.90;;
11510;SDS011;5812;48.864;9.190;2022-11-15T08:47:29;4.03;;;4.03;;
11510;SDS011;5812;48.864;9.190;2022-11-15T08:49:55;4.03;;;4.03;;
11510;SDS011;5812;48.864;9.190;2022-11-15T08:52:21;3.93;;;3.93;;
11510;SDS011;5812;48.864;9.190;2022-11-15T08:54:47;3.80;;;3.80;;
11510;SDS011;5812;48.864;9.190;2022-11-15T08:57:12;3.73;;;3.73;;
11510;SDS011;5812;48.864;9.190;2022-11-15T08:59:38;3.63;;;3.63;;
11510;SDS011;5812;48.864;9.190;2022-11-15T09:02:04;3.20;;;3.20;;
11510;SDS011;5812;48.864;9.190;2022-11-15T09:04:30;3.63;;;3.63;;
11510;SDS011;5812;48.864;9.190;2022-11-15T09:06:55;3.30;;;3.30;;
11510;SDS011;5812;48.864;9.190;2022-11-15T09:09:21;3.70;;;3.70;;
11510;SDS011;5812;48.864;9.190;2022-11-15T09:11:47;3.33;;;3.33;;
11510;SDS011;5812;48.864;9.190;2022-11-15T09:14:13;3.67;;;3.67;;
11510;SDS011;5812;48.864;9.190;2022-11-15T09:16:39;3.53;;;3.53;;
11510;SDS011;5812;48.864;9.190;2022-11-15T09:19:05;4.10;;;4.10;;
11510;SDS011;5812;48.864;9.190;2022-11-15T09:21:31;3.17;;;3.17;;
11510;SDS011;5812;48.864;9.190;2022-11-15T09:23:57;3.47;;;3.47;;
11510;SDS011;5812;48.864;9.190;2022-11-15T09:26:23;3.17;;;3.17;;
11510;SDS011;5812;48.864;9.190;2022-11-15T09:28:49;3.03;;;3.03;;
11510;SDS011;5812;48.864;9.190;2022-11-15T09:31:15;3.17;;;3.17;;
11510;SDS011;5812;48.864;9.190;2022-11-15T09:33:43;3.17;;;3.17;;
11510;SDS011;5812;48.864;9.190;2022-11-15T09:36:10;3.43;;;3.43;;
11510;SDS011;5812;48.864;9.190;2022-11-15T09:38:36;3.43;;;3.43;;
11510;SDS011;5812;48.864;9.190;2022-11-15T09:41:13;3.70;;;3.70;;
11510;SDS011;5812;48.864;9.190;2022-11-15T09:44:24;2.83;;;2.83;;
11510;SDS011;5812;48.864;9.190;2022-11-15T09:49:37;2.57;;;2.57;;
11510;SDS011;5812;48.864;9.190;2022-11-15T09:52:03;2.73;;;2.73;;
11510;SDS011;5812;48.864;9.190;2022-11-15T09:54:30;2.77;;;2.77;;
11510;SDS011;5812;48.864;9.190;2022-11-15T09:57:17;2.50;;;2.50;;
11510;SDS011;5812;48.864;9.190;2022-11-15T10:05:41;2.60;;;2.60;;
11510;SDS011;5812;48.864;9.190;2022-11-15T10:11:07;2.50;;;2.50;;
11510;SDS011;5812;48.864;9.190;2022-11-15T10:13:43;2.63;;;2.63;;
11510;SDS011;5812;48.864;9.190;2022-11-15T10:19:23;2.20;;;2.20;;
11510;SDS011;5812;48.864;9.190;2022-11-15T10:21:57;2.50;;;2.50;;
11510;SDS011;5812;48.864;9.190;2022-11-15T10:27:38;2.80;;;2.80;;
11510;SDS011;5812;48.864;9.190;2022-11-15T10:30:12;3.00;;;3.00;;
11510;SDS011;5812;48.864;9.190;2022-11-15T10:32:40;2.37;;;2.37;;
11510;SDS011;5812;48.864;9.190;2022-11-15T10:35:21;2.50;;;2.50;;
11510;SDS011;5812;48.864;9.190;2022-11-15T10:37:49;3.00;;;3.00;;
11510;SDS011;5812;48.864;9.190;2022-11-15T10:42:42;2.97;;;2.97;;
11510;SDS011;5812;48.864;9.190;2022-11-15T10:45:24;2.77;;;2.77;;
11510;SDS011;5812;48.864;9.190;2022-11-15T10:47:53;2.90;;;2.90;;
11510;SDS011;5812;48.864;9.190;2022-11-15T10:50:29;2.90;;;2.90;;
11510;SDS011;5812;48.864;9.190;2022-11-15T10:52:56;2.60;;;2.60;;
11510;SDS011;5812;48.864;9.190;2022-11-15T10:55:24;2.77;;;2.77;;
11510;SDS011;5812;48.864;9.190;2022-11-15T10:57:54;2.70;;;2.70;;
11510;SDS011;5812;48.864;9.190;2022-11-15T11:00:29;2.93;;;2.93;;
11510;SDS011;5812;48.864;9.190;2022-11-15T11:03:05;3.03;;;3.03;;
11510;SDS011;5812;48.864;9.190;2022-11-15T11:05:46;2.93;;;2.93;;
11510;SDS011;5812;48.864;9.190;2022-11-15T11:11:13;2.50;;;2.50;;
11510;SDS011;5812;48.864;9.190;2022-11-15T11:13:37;2.23;;;2.23;;
11510;SDS011;5812;48.864;9.190;2022-11-15T11:21:39;2.63;;;2.63;;
11510;SDS011;5812;48.864;9.190;2022-11-15T11:24:35;2.77;;;2.77;;
11510;SDS011;5812;48.864;9.190;2022-11-15T11:30:19;2.20;;;2.20;;
11510;SDS011;5812;48.864;9.190;2022-11-15T11:35:50;2.63;;;2.63;;
11510;SDS011;5812;48.864;9.190;2022-11-15T11:38:39;3.00;;;3.00;;
11510;SDS011;5812;48.864;9.190;2022-11-15T11:41:24;3.20;;;3.20;;
11510;SDS011;5812;48.864;9.190;2022-11-15T11:46:49;3.03;;;3.03;;
11510;SDS011;5812;48.864;9.190;2022-11-15T12:00:25;4.40;;;4.40;;
11510;SDS011;5812;48.864;9.190;2022-11-15T12:05:27;2.97;;;2.97;;
11510;SDS011;5812;48.864;9.190;2022-11-15T12:08:03;3.20;;;3.20;;
11510;SDS011;5812;48.864;9.190;2022-11-15T12:10:40;3.00;;;3.00;;
11510;SDS011;5812;48.864;9.190;2022-11-15T12:13:19;2.70;;;2.70;;
11510;SDS011;5812;48.864;9.190;2022-11-15T12:18:33;3.20;;;3.20;;
11510;SDS011;5812;48.864;9.190;2022-11-15T12:21:01;3.17;;;3.17;;
11510;SDS011;5812;48.864;9.190;2022-11-15T12:23:35;2.40;;;2.40;;
11510;SDS011;5812;48.864;9.190;2022-11-15T12:26:23;2.50;;;2.50;;
11510;SDS011;5812;48.864;9.190;2022-11-15T12:28:59;2.70;;;2.70;;
11510;SDS011;5812;48.864;9.190;2022-11-15T12:34:05;1.87;;;1.87;;
11510;SDS011;5812;48.864;9.190;2022-11-15T12:36:55;2.23;;;2.23;;
11510;SDS011;5812;48.864;9.190;2022-11-15T12:39:20;2.30;;;2.30;;
11510;SDS011;5812;48.864;9.190;2022-11-15T12:47:22;2.77;;;2.77;;
11510;SDS011;5812;48.864;9.190;2022-11-15T12:49:50;2.43;;;2.43;;
11510;SDS011;5812;48.864;9.190;2022-11-15T12:52:16;2.67;;;2.67;;
11510;SDS011;5812;48.864;9.190;2022-11-15T13:02:24;2.13;;;2.13;;
11510;SDS011;5812;48.864;9.190;2022-11-15T13:17:37;2.73;;;2.73;;
11510;SDS011;5812;48.864;9.190;2022-11-15T13:30:39;2.50;;;2.50;;
11510;SDS011;5812;48.864;9.190;2022-11-15T13:33:17;2.70;;;2.70;;
11510;SDS011;5812;48.864;9.190;2022-11-15T13:35:54;2.37;;;2.37;;
11510;SDS011;5812;48.864;9.190;2022-11-15T13:40:51;2.60;;;2.60;;
11510;SDS011;5812;48.864;9.190;2022-11-15T13:43:38;2.53;;;2.53;;
11510;SDS011;5812;48.864;9.190;2022-11-15T13:48:29;2.73;;;2.73;;
11510;SDS011;5812;48.864;9.190;2022-11-15T13:50:54;2.57;;;2.57;;
11510;SDS011;5812;48.864;9.190;2022-11-15T13:53:22;2.67;;;2.67;;
11510;SDS011;5812;48.864;9.190;2022-11-15T13:55:48;2.53;;;2.53;;
11510;SDS011;5812;48.864;9.190;2022-11-15T13:58:14;2.57;;;2.57;;
11510;SDS011;5812;48.864;9.190;2022-11-15T14:00:40;2.60;;;2.60;;
11510;SDS011;5812;48.864;9.190;2022-11-15T14:03:14;2.63;;;2.63;;
11510;SDS011;5812;48.864;9.190;2022-11-15T14:08:31;2.77;;;2.77;;
11510;SDS011;5812;48.864;9.190;2022-11-15T14:11:14;2.93;;;2.93;;
11510;SDS011;5812;48.864;9.190;2022-11-15T14:13:42;2.43;;;2.43;;
11510;SDS011;5812;48.864;9.190;2022-11-15T14:16:31;2.87;;;2.87;;
11510;SDS011;5812;48.864;9.190;2022-11-15T14:19:01;2.80;;;2.80;;
11510;SDS011;5812;48.864;9.190;2022-11-15T14:21:28;2.80;;;2.80;;
11510;SDS011;5812;48.864;9.190;2022-11-15T14:24:39;2.87;;;2.87;;
11510;SDS011;5812;48.864;9.190;2022-11-15T14:26:41;3.40;;;3.40;;
11510;SDS011;5812;48.864;9.190;2022-11-15T14:29:23;2.83;;;2.83;;
11510;SDS011;5812;48.864;9.190;2022-11-15T14:31:49;3.23;;;3.23;;
11510;SDS011;5812;48.864;9.190;2022-11-15T14:34:15;3.00;;;3.00;;
11510;SDS011;5812;48.864;9.190;2022-11-15T14:36:41;3.27;;;3.27;;
11510;SDS011;5812;48.864;9.190;2022-11-15T14:39:09;3.40;;;3.40;;
11510;SDS011;5812;48.864;9.190;2022-11-15T14:41:35;2.87;;;2.87;;
11510;SDS011;5812;48.864;9.190;2022-11-15T14:44:03;3.40;;;3.40;;
11510;SDS011;5812;48.864;9.190;2022-11-15T14:46:30;3.63;;;3.63;;
11510;SDS011;5812;48.864;9.190;2022-11-15T14:48:55;3.93;;;3.93;;
11510;SDS011;5812;48.864;9.190;2022-11-15T14:51:21;3.30;;;3.30;;
11510;SDS011;5812;48.864;9.190;2022-11-15T14:53:47;3.47;;;3.47;;
11510;SDS011;5812;48.864;9.190;2022-11-15T14:56:13;3.90;;;3.90;;
11510;SDS011;5812;48.864;9.190;2022-11-15T14:58:39;3.13;;;3.13;;
11510;SDS011;5812;48.864;9.190;2022-11-15T15:01:24;3.63;;;3.63;;
11510;SDS011;5812;48.864;9.190;2022-11-15T15:03:50;2.93;;;2.93;;
11510;SDS011;5812;48.864;9.190;2022-11-15T15:06:19;3.30;;;3.30;;
11510;SDS011;5812;48.864;9.190;2022-11-15T15:08:45;3.40;;;3.40;;
11510;SDS011;5812;48.864;9.190;2022-11-15T15:11:14;3.87;;;3.87;;
11510;SDS011;5812;48.864;9.190;2022-11-15T15:13:43;4.37;;;4.37;;
11510;SDS011;5812;48.864;9.190;2022-11-15T15:16:09;4.77;;;4.77;;
11510;SDS011;5812;48.864;9.190;2022-11-15T15:18:34;5.10;;;5.10;;
11510;SDS011;5812;48.864;9.190;2022-11-15T15:21:00;4.10;;;4.10;;
11510;SDS011;5812;48.864;9.190;2022-11-15T15:23:31;5.80;;;5.80;;
11510;SDS011;5812;48.864;9.190;2022-11-15T15:25:57;5.07;;;5.07;;
11510;SDS011;5812;48.864;9.190;2022-11-15T15:28:23;5.70;;;5.70;;
11510;SDS011;5812;48.864;9.190;2022-11-15T15:30:49;5.37;;;5.37;;
11510;SDS011;5812;48.864;9.190;2022-11-15T15:33:15;5.67;;;5.67;;
11510;SDS011;5812;48.864;9.190;2022-11-15T15:35:41;5.13;;;5.13;;
11510;SDS011;5812;48.864;9.190;2022-11-15T15:38:08;4.90;;;4.90;;
11510;SDS011;5812;48.864;9.190;2022-11-15T15:40:37;5.40;;;5.40;;
11510;SDS011;5812;48.864;9.190;2022-11-15T15:43:02;5.30;;;5.30;;
11510;SDS011;5812;48.864;9.190;2022-11-15T15:45:28;5.00;;;5.00;;
11510;SDS011;5812;48.864;9.190;2022-11-15T15:47:54;4.57;;;4.57;;
11510;SDS011;5812;48.864;9.190;2022-11-15T15:52:48;5.47;;;5.47;;
11510;SDS011;5812;48.864;9.190;2022-11-15T15:55:14;5.27;;;5.27;;
11510;SDS011;5812;48.864;9.190;2022-11-15T15:57:40;5.67;;;5.67;;
11510;SDS011;5812;48.864;9.190;2022-11-15T16:00:06;6.07;;;6.07;;
11510;SDS011;5812;48.864;9.190;2022-11-15T16:02:32;6.90;;;6.90;;
11510;SDS011;5812;48.864;9.190;2022-11-15T16:04:58;6.20;;;6.20;;
11510;SDS011;5812;48.864;9.190;2022-11-15T16:07:23;6.47;;;6.47;;
11510;SDS011;5812;48.864;9.190;2022-11-15T16:09:49;5.83;;;5.83;;
11510;SDS011;5812;48.864;9.190;2022-11-15T16:12:28;5.20;;;5.20;;
11510;SDS011;5812;48.864;9.190;2022-11-15T16:14:58;5.07;;;5.07;;
11510;SDS011;5812;48.864;9.190;2022-11-15T16:17:25;5.27;;;5.27;;
11510;SDS011;5812;48.864;9.190;2022-11-15T16:20:02;4.57;;;4.57;;
11510;SDS011;5812;48.864;9.190;2022-11-15T16:22:28;5.43;;;5.43;;
11510;SDS011;5812;48.864;9.190;2022-11-15T16:24:54;6.47;;;6.47;;
11510;SDS011;5812;48.864;9.190;2022-11-15T16:27:20;6.23;;;6.23;;
11510;SDS011;5812;48.864;9.190;2022-11-15T16:29:47;5.60;;;5.60;;
11510;SDS011;5812;48.864;9.190;2022-11-15T16:32:13;5.60;;;5.60;;
11510;SDS011;5812;48.864;9.190;2022-11-15T16:34:39;5.23;;;5.23;;
11510;SDS011;5812;48.864;9.190;2022-11-15T16:37:05;4.17;;;4.17;;
11510;SDS011;5812;48.864;9.190;2022-11-15T16:39:38;5.10;;;5.10;;
11510;SDS011;5812;48.864;9.190;2022-11-15T16:42:04;4.27;;;4.27;;
11510;SDS011;5812;48.864;9.190;2022-11-15T16:44:29;4.50;;;4.50;;
11510;SDS011;5812;48.864;9.190;2022-11-15T16:46:55;4.07;;;4.07;;
11510;SDS011;5812;48.864;9.190;2022-11-15T16:49:21;3.87;;;3.87;;
11510;SDS011;5812;48.864;9.190;2022-11-15T16:51:47;5.20;;;5.20;;
11510;SDS011;5812;48.864;9.190;2022-11-15T16:54:14;4.80;;;4.80;;
11510;SDS011;5812;48.864;9.190;2022-11-15T16:56:40;4.67;;;4.67;;
11510;SDS011;5812;48.864;9.190;2022-11-15T16:59:08;5.47;;;5.47;;
11510;SDS011;5812;48.864;9.190;2022-11-15T17:01:38;4.73;;;4.73;;
11510;SDS011;5812;48.864;9.190;2022-11-15T17:04:11;5.17;;;5.17;;
11510;SDS011;5812;48.864;9.190;2022-11-15T17:06:38;5.90;;;5.90;;
11510;SDS011;5812;48.864;9.190;2022-11-15T17:09:04;6.20;;;6.20;;
11510;SDS011;5812;48.864;9.190;2022-11-15T17:11:31;4.77;;;4.77;;
11510;SDS011;5812;48.864;9.190;2022-11-15T17:13:57;5.03;;;5.03;;
11510;SDS011;5812;48.864;9.190;2022-11-15T17:16:23;5.40;;;5.40;;